Detall de PIREP

Printer-friendly versionPDF version

[2017/08/15 07:26:00]
Flight IATA:CT0001
Pilot Number:041
Company ICAO:CAT
Aircraft Type:B738/F
PAX:123
Departing Airport: LELC
Destination Airport: LEMH
Alternate Airport:LEBL
Online: VATSIM
Route:MITOS B46 PTC
Flight Level:FL240
No Slew and time accel
No pause
Crash detect
Detect pilot in Cockpit between each 30 and 45 minutes
07:26 Zero fuel Weight: 135504 Lbs, Fuel Weight: 18227 Lbs
07:26 VATSIM:LELC 150700Z VRB02KT 9999 FEW018 BKN030 25/19 Q1018 NOSIG
07:26 VATSIM:LEMH 150700Z 09011KT 050V120 9999 FEW015 26/20 Q1019
07:27 VOICE CATALONIAN
07:31 Parking Brakes off
07:34 Take-off
07:34 Take off Weight: 153125 Lbs
07:34 Wind: 193º @ 008 Knots Heading: 223º
07:34 POS N37º 46´ 05´´ W000º 49´ 14´´
07:34 Gear Up: 170 Knots
07:34 Flaps:3 at 170 Knots
07:35 Flaps:2 at 173 Knots
07:35 Flaps:1 at 190 Knots
07:35 Flaps:0 at 199 Knots
07:45 TOC
07:45 Fuel Weight: 14945 Lb
07:49 Wind:249º@030 Knots Heading: 065º Ground Speed: 461 Knots Altitude 23963 ft
08:04 Wind:270º@037 Knots Heading: 068º Ground Speed: 465 Knots Altitude 23963 ft
08:05 TOD
08:05 Fuel Weight: 12650 Lb
08:15 Flaps:1 at 248 Knots
08:18 Flaps:3 at 248 Knots
08:19 Wind:336º@013 Knots Heading: 094º Ground Speed: 250 Knots Altitude 3303 ft
08:24 Flaps:4 at 230 Knots
08:25 Flaps:5 at 197 Knots
08:25 Flaps:6 at 190 Knots
08:25 Gear Down: 179 Knots
08:26 Flaps:7 at 173 Knots
08:26 Flaps:8 at 149 Knots
08:27 TouchDown:Rate -94 ft/min Speed: 136 Knots
08:27 VATSIM:LEMH 150800Z 12012KT 080V140 9999 FEW025 27/19 Q1019
08:27 Land
08:27 Wind:220º@007 Knots
08:27 Heading: 010º
08:27 Flight Duration: 00:53
08:27 Landing Weight: 146904 Lbs
08:27 POS N39º 52´ 04´´ E004º 13´ 10´´
08:30 Parking brakes on
08:30 Block to Block Duration: 00:59
08:30 Final Fuel: 11199 Lbls
08:30 Spent Fuel: 7028 Lbls
08:30 Flight Length: 323 NM
08:30 TOD Land Length: 107 NM

Exportar CSV

Powered by Drupal - Modified by Danger4k